sensor_id;sensor_type;location;lat;lon;timestamp;P1;durP1;ratioP1;P2;durP2;ratioP2
21837;SDS011;11081;45.946;6.140;2023-02-08T00:01:09;31.17;;;16.80;;
21837;SDS011;11081;45.946;6.140;2023-02-08T00:03:39;30.67;;;18.00;;
21837;SDS011;11081;45.946;6.140;2023-02-08T00:06:07;30.83;;;18.00;;
21837;SDS011;11081;45.946;6.140;2023-02-08T00:08:36;31.40;;;17.83;;
21837;SDS011;11081;45.946;6.140;2023-02-08T00:11:04;31.73;;;17.27;;
21837;SDS011;11081;45.946;6.140;2023-02-08T00:13:36;28.20;;;17.10;;
21837;SDS011;11081;45.946;6.140;2023-02-08T00:16:08;31.80;;;18.47;;
21837;SDS011;11081;45.946;6.140;2023-02-08T00:18:39;28.00;;;18.23;;
21837;SDS011;11081;45.946;6.140;2023-02-08T00:21:08;28.90;;;18.03;;
21837;SDS011;11081;45.946;6.140;2023-02-08T00:23:36;28.63;;;18.10;;
21837;SDS011;11081;45.946;6.140;2023-02-08T00:26:05;30.00;;;18.30;;
21837;SDS011;11081;45.946;6.140;2023-02-08T00:28:33;29.27;;;18.07;;
21837;SDS011;11081;45.946;6.140;2023-02-08T00:31:02;35.03;;;18.40;;
21837;SDS011;11081;45.946;6.140;2023-02-08T00:33:32;30.23;;;17.53;;
21837;SDS011;11081;45.946;6.140;2023-02-08T00:36:00;26.73;;;16.10;;
21837;SDS011;11081;45.946;6.140;2023-02-08T00:38:29;27.30;;;16.40;;
21837;SDS011;11081;45.946;6.140;2023-02-08T00:40:58;28.67;;;16.80;;
21837;SDS011;11081;45.946;6.140;2023-02-08T00:43:26;29.57;;;16.23;;
21837;SDS011;11081;45.946;6.140;2023-02-08T00:45:54;25.20;;;15.30;;
21837;SDS011;11081;45.946;6.140;2023-02-08T00:48:23;27.30;;;15.57;;
21837;SDS011;11081;45.946;6.140;2023-02-08T00:50:59;30.43;;;16.37;;
21837;SDS011;11081;45.946;6.140;2023-02-08T00:53:29;26.80;;;15.70;;
21837;SDS011;11081;45.946;6.140;2023-02-08T00:55:58;30.57;;;16.70;;
21837;SDS011;11081;45.946;6.140;2023-02-08T00:58:26;27.23;;;16.67;;
21837;SDS011;11081;45.946;6.140;2023-02-08T01:00:54;32.73;;;18.83;;
21837;SDS011;11081;45.946;6.140;2023-02-08T01:03:22;32.13;;;18.03;;
21837;SDS011;11081;45.946;6.140;2023-02-08T01:05:50;31.30;;;18.67;;
21837;SDS011;11081;45.946;6.140;2023-02-08T01:08:20;33.57;;;19.23;;
21837;SDS011;11081;45.946;6.140;2023-02-08T01:10:48;29.67;;;18.77;;
21837;SDS011;11081;45.946;6.140;2023-02-08T01:13:16;30.67;;;19.00;;
21837;SDS011;11081;45.946;6.140;2023-02-08T01:15:44;31.67;;;19.97;;
21837;SDS011;11081;45.946;6.140;2023-02-08T01:18:12;33.13;;;19.60;;
21837;SDS011;11081;45.946;6.140;2023-02-08T01:20:40;34.43;;;20.23;;
21837;SDS011;11081;45.946;6.140;2023-02-08T01:23:08;37.07;;;20.67;;
21837;SDS011;11081;45.946;6.140;2023-02-08T01:25:39;35.67;;;20.77;;
21837;SDS011;11081;45.946;6.140;2023-02-08T01:28:08;32.60;;;19.00;;
21837;SDS011;11081;45.946;6.140;2023-02-08T01:30:36;30.90;;;18.63;;
21837;SDS011;11081;45.946;6.140;2023-02-08T01:33:04;34.40;;;19.63;;
21837;SDS011;11081;45.946;6.140;2023-02-08T01:35:32;33.40;;;19.50;;
21837;SDS011;11081;45.946;6.140;2023-02-08T01:38:02;31.97;;;18.33;;
21837;SDS011;11081;45.946;6.140;2023-02-08T01:40:30;33.53;;;20.10;;
21837;SDS011;11081;45.946;6.140;2023-02-08T01:42:59;35.03;;;20.53;;
21837;SDS011;11081;45.946;6.140;2023-02-08T01:45:29;35.20;;;20.10;;
21837;SDS011;11081;45.946;6.140;2023-02-08T01:48:03;37.00;;;21.13;;
21837;SDS011;11081;45.946;6.140;2023-02-08T01:50:39;33.93;;;19.10;;
21837;SDS011;11081;45.946;6.140;2023-02-08T01:53:14;30.93;;;19.20;;
21837;SDS011;11081;45.946;6.140;2023-02-08T01:55:44;32.37;;;19.33;;
21837;SDS011;11081;45.946;6.140;2023-02-08T01:58:16;33.67;;;20.70;;
21837;SDS011;11081;45.946;6.140;2023-02-08T02:00:46;33.97;;;20.23;;
21837;SDS011;11081;45.946;6.140;2023-02-08T02:03:15;37.27;;;21.03;;
21837;SDS011;11081;45.946;6.140;2023-02-08T02:05:46;34.50;;;20.43;;
21837;SDS011;11081;45.946;6.140;2023-02-08T02:08:18;36.70;;;21.10;;
21837;SDS011;11081;45.946;6.140;2023-02-08T02:10:47;36.80;;;20.20;;
21837;SDS011;11081;45.946;6.140;2023-02-08T02:13:17;32.73;;;20.23;;
21837;SDS011;11081;45.946;6.140;2023-02-08T02:15:48;35.00;;;20.77;;
21837;SDS011;11081;45.946;6.140;2023-02-08T02:18:16;36.63;;;22.70;;
21837;SDS011;11081;45.946;6.140;2023-02-08T02:21:03;35.63;;;21.33;;
21837;SDS011;11081;45.946;6.140;2023-02-08T02:26:57;35.47;;;20.60;;
21837;SDS011;11081;45.946;6.140;2023-02-08T02:30:06;39.20;;;21.73;;
21837;SDS011;11081;45.946;6.140;2023-02-08T02:33:06;35.13;;;20.93;;
21837;SDS011;11081;45.946;6.140;2023-02-08T02:35:53;34.30;;;21.50;;
21837;SDS011;11081;45.946;6.140;2023-02-08T02:38:29;38.23;;;21.20;;
21837;SDS011;11081;45.946;6.140;2023-02-08T02:41:09;36.53;;;20.77;;
21837;SDS011;11081;45.946;6.140;2023-02-08T02:44:08;40.20;;;21.23;;
21837;SDS011;11081;45.946;6.140;2023-02-08T02:46:45;40.33;;;22.27;;
21837;SDS011;11081;45.946;6.140;2023-02-08T02:49:21;34.27;;;21.03;;
21837;SDS011;11081;45.946;6.140;2023-02-08T02:51:55;35.93;;;22.03;;
21837;SDS011;11081;45.946;6.140;2023-02-08T02:54:30;37.80;;;21.67;;
21837;SDS011;11081;45.946;6.140;2023-02-08T02:57:02;44.20;;;22.37;;
21837;SDS011;11081;45.946;6.140;2023-02-08T02:59:33;35.00;;;20.13;;
21837;SDS011;11081;45.946;6.140;2023-02-08T03:02:03;36.87;;;20.37;;
21837;SDS011;11081;45.946;6.140;2023-02-08T03:04:47;40.80;;;21.57;;
21837;SDS011;11081;45.946;6.140;2023-02-08T03:07:20;34.60;;;20.87;;
21837;SDS011;11081;45.946;6.140;2023-02-08T03:10:00;35.53;;;20.60;;
21837;SDS011;11081;45.946;6.140;2023-02-08T03:12:39;36.43;;;21.00;;
21837;SDS011;11081;45.946;6.140;2023-02-08T03:15:17;38.20;;;22.23;;
21837;SDS011;11081;45.946;6.140;2023-02-08T03:17:56;34.93;;;20.27;;
21837;SDS011;11081;45.946;6.140;2023-02-08T03:20:34;39.03;;;23.10;;
21837;SDS011;11081;45.946;6.140;2023-02-08T03:23:08;37.50;;;22.13;;
21837;SDS011;11081;45.946;6.140;2023-02-08T03:25:44;37.80;;;22.13;;
21837;SDS011;11081;45.946;6.140;2023-02-08T03:28:19;34.97;;;20.13;;
21837;SDS011;11081;45.946;6.140;2023-02-08T03:30:54;34.37;;;19.60;;
21837;SDS011;11081;45.946;6.140;2023-02-08T03:33:29;34.10;;;19.57;;
21837;SDS011;11081;45.946;6.140;2023-02-08T03:36:04;40.00;;;22.30;;
21837;SDS011;11081;45.946;6.140;2023-02-08T03:38:35;38.83;;;21.90;;
21837;SDS011;11081;45.946;6.140;2023-02-08T03:41:08;40.83;;;22.37;;
21837;SDS011;11081;45.946;6.140;2023-02-08T03:43:41;41.53;;;22.57;;
21837;SDS011;11081;45.946;6.140;2023-02-08T03:46:14;37.80;;;23.23;;
21837;SDS011;11081;45.946;6.140;2023-02-08T03:48:48;40.20;;;23.80;;
21837;SDS011;11081;45.946;6.140;2023-02-08T03:51:22;37.13;;;21.23;;
21837;SDS011;11081;45.946;6.140;2023-02-08T03:53:53;36.63;;;21.03;;
21837;SDS011;11081;45.946;6.140;2023-02-08T03:56:25;37.27;;;20.83;;
21837;SDS011;11081;45.946;6.140;2023-02-08T03:59:02;37.37;;;20.87;;
21837;SDS011;11081;45.946;6.140;2023-02-08T04:01:35;33.83;;;20.03;;
21837;SDS011;11081;45.946;6.140;2023-02-08T04:04:08;33.93;;;19.93;;
21837;SDS011;11081;45.946;6.140;2023-02-08T04:06:38;37.57;;;19.90;;
21837;SDS011;11081;45.946;6.140;2023-02-08T04:09:06;39.53;;;20.27;;
21837;SDS011;11081;45.946;6.140;2023-02-08T04:11:34;38.70;;;21.20;;
21837;SDS011;11081;45.946;6.140;2023-02-08T04:14:02;37.40;;;21.70;;
21837;SDS011;11081;45.946;6.140;2023-02-08T04:16:30;42.23;;;22.53;;
21837;SDS011;11081;45.946;6.140;2023-02-08T04:18:58;37.67;;;21.40;;
21837;SDS011;11081;45.946;6.140;2023-02-08T04:21:26;38.37;;;21.60;;
21837;SDS011;11081;45.946;6.140;2023-02-08T04:23:56;38.87;;;22.10;;
21837;SDS011;11081;45.946;6.140;2023-02-08T04:26:24;39.53;;;23.00;;
21837;SDS011;11081;45.946;6.140;2023-02-08T04:28:52;37.80;;;20.93;;
21837;SDS011;11081;45.946;6.140;2023-02-08T04:31:20;41.10;;;22.07;;
21837;SDS011;11081;45.946;6.140;2023-02-08T04:33:48;35.37;;;20.20;;
21837;SDS011;11081;45.946;6.140;2023-02-08T04:36:16;41.53;;;21.87;;
21837;SDS011;11081;45.946;6.140;2023-02-08T04:38:44;38.30;;;19.87;;
21837;SDS011;11081;45.946;6.140;2023-02-08T04:41:13;31.60;;;19.27;;
21837;SDS011;11081;45.946;6.140;2023-02-08T04:43:41;31.47;;;18.53;;
21837;SDS011;11081;45.946;6.140;2023-02-08T04:46:09;29.73;;;17.20;;
21837;SDS011;11081;45.946;6.140;2023-02-08T04:48:38;38.27;;;19.90;;
21837;SDS011;11081;45.946;6.140;2023-02-08T04:51:06;39.27;;;22.83;;
21837;SDS011;11081;45.946;6.140;2023-02-08T04:53:34;32.80;;;20.10;;
21837;SDS011;11081;45.946;6.140;2023-02-08T04:56:02;34.90;;;20.20;;
21837;SDS011;11081;45.946;6.140;2023-02-08T04:58:32;33.10;;;19.67;;
21837;SDS011;11081;45.946;6.140;2023-02-08T05:01:04;36.73;;;20.87;;
21837;SDS011;11081;45.946;6.140;2023-02-08T05:03:33;46.10;;;22.20;;
21837;SDS011;11081;45.946;6.140;2023-02-08T05:06:01;36.73;;;21.43;;
21837;SDS011;11081;45.946;6.140;2023-02-08T05:08:29;39.33;;;22.17;;
21837;SDS011;11081;45.946;6.140;2023-02-08T05:10:57;41.37;;;24.33;;
21837;SDS011;11081;45.946;6.140;2023-02-08T05:13:25;42.47;;;23.20;;
21837;SDS011;11081;45.946;6.140;2023-02-08T05:15:54;38.17;;;22.77;;
21837;SDS011;11081;45.946;6.140;2023-02-08T05:18:22;38.87;;;22.60;;
21837;SDS011;11081;45.946;6.140;2023-02-08T05:20:54;38.57;;;23.50;;
21837;SDS011;11081;45.946;6.140;2023-02-08T05:23:23;41.00;;;23.40;;
21837;SDS011;11081;45.946;6.140;2023-02-08T05:25:51;39.73;;;23.93;;
21837;SDS011;11081;45.946;6.140;2023-02-08T05:28:19;43.53;;;24.63;;
21837;SDS011;11081;45.946;6.140;2023-02-08T05:30:48;43.00;;;24.27;;
21837;SDS011;11081;45.946;6.140;2023-02-08T05:33:17;41.57;;;25.20;;
21837;SDS011;11081;45.946;6.140;2023-02-08T05:35:45;42.20;;;24.50;;
21837;SDS011;11081;45.946;6.140;2023-02-08T05:38:13;45.23;;;25.03;;
21837;SDS011;11081;45.946;6.140;2023-02-08T05:40:41;43.60;;;25.17;;
21837;SDS011;11081;45.946;6.140;2023-02-08T05:43:09;48.27;;;26.87;;
21837;SDS011;11081;45.946;6.140;2023-02-08T05:45:37;46.47;;;26.93;;
21837;SDS011;11081;45.946;6.140;2023-02-08T05:48:05;41.50;;;24.60;;
21837;SDS011;11081;45.946;6.140;2023-02-08T05:50:34;45.13;;;26.37;;
21837;SDS011;11081;45.946;6.140;2023-02-08T05:53:03;44.73;;;26.20;;
21837;SDS011;11081;45.946;6.140;2023-02-08T05:55:31;46.77;;;26.90;;
21837;SDS011;11081;45.946;6.140;2023-02-08T05:57:59;43.30;;;25.13;;
21837;SDS011;11081;45.946;6.140;2023-02-08T06:00:27;45.00;;;27.33;;
21837;SDS011;11081;45.946;6.140;2023-02-08T06:02:56;48.53;;;26.23;;
21837;SDS011;11081;45.946;6.140;2023-02-08T06:05:24;45.40;;;25.67;;
21837;SDS011;11081;45.946;6.140;2023-02-08T06:07:53;43.80;;;25.57;;
21837;SDS011;11081;45.946;6.140;2023-02-08T06:10:21;42.10;;;25.20;;
21837;SDS011;11081;45.946;6.140;2023-02-08T06:12:49;42.87;;;25.83;;
21837;SDS011;11081;45.946;6.140;2023-02-08T06:15:17;40.90;;;24.37;;
21837;SDS011;11081;45.946;6.140;2023-02-08T06:17:45;44.13;;;24.73;;
21837;SDS011;11081;45.946;6.140;2023-02-08T06:20:13;41.70;;;24.70;;
21837;SDS011;11081;45.946;6.140;2023-02-08T06:22:41;42.13;;;24.67;;
21837;SDS011;11081;45.946;6.140;2023-02-08T06:25:11;44.50;;;25.13;;
21837;SDS011;11081;45.946;6.140;2023-02-08T06:27:39;50.00;;;27.23;;
21837;SDS011;11081;45.946;6.140;2023-02-08T06:30:07;50.90;;;26.17;;
21837;SDS011;11081;45.946;6.140;2023-02-08T06:32:36;53.60;;;26.97;;
21837;SDS011;11081;45.946;6.140;2023-02-08T06:35:04;54.00;;;27.03;;
21837;SDS011;11081;45.946;6.140;2023-02-08T06:37:33;47.73;;;25.23;;
21837;SDS011;11081;45.946;6.140;2023-02-08T06:40:01;40.80;;;24.63;;
21837;SDS011;11081;45.946;6.140;2023-02-08T06:42:31;39.17;;;23.03;;
21837;SDS011;11081;45.946;6.140;2023-02-08T06:44:59;47.20;;;24.20;;
21837;SDS011;11081;45.946;6.140;2023-02-08T06:47:27;39.07;;;23.43;;
21837;SDS011;11081;45.946;6.140;2023-02-08T06:49:55;40.20;;;23.07;;
21837;SDS011;11081;45.946;6.140;2023-02-08T06:52:23;40.53;;;23.47;;
21837;SDS011;11081;45.946;6.140;2023-02-08T06:54:51;39.47;;;21.60;;
21837;SDS011;11081;45.946;6.140;2023-02-08T06:57:19;39.80;;;23.50;;
21837;SDS011;11081;45.946;6.140;2023-02-08T06:59:49;43.03;;;22.27;;
21837;SDS011;11081;45.946;6.140;2023-02-08T07:02:17;56.27;;;24.43;;
21837;SDS011;11081;45.946;6.140;2023-02-08T07:04:47;40.20;;;23.43;;
21837;SDS011;11081;45.946;6.140;2023-02-08T07:07:16;50.33;;;26.90;;
21837;SDS011;11081;45.946;6.140;2023-02-08T07:09:44;44.03;;;26.77;;
21837;SDS011;11081;45.946;6.140;2023-02-08T07:12:12;43.20;;;25.20;;
21837;SDS011;11081;45.946;6.140;2023-02-08T07:14:41;41.10;;;23.77;;
21837;SDS011;11081;45.946;6.140;2023-02-08T07:17:11;43.03;;;23.80;;
21837;SDS011;11081;45.946;6.140;2023-02-08T07:19:40;40.87;;;23.30;;
21837;SDS011;11081;45.946;6.140;2023-02-08T07:22:08;38.67;;;23.13;;
21837;SDS011;11081;45.946;6.140;2023-02-08T07:24:36;37.27;;;23.53;;
21837;SDS011;11081;45.946;6.140;2023-02-08T07:27:06;40.83;;;22.63;;
21837;SDS011;11081;45.946;6.140;2023-02-08T07:29:36;41.20;;;21.10;;
21837;SDS011;11081;45.946;6.140;2023-02-08T07:32:05;34.00;;;19.07;;
21837;SDS011;11081;45.946;6.140;2023-02-08T07:34:35;32.80;;;18.30;;
21837;SDS011;11081;45.946;6.140;2023-02-08T07:37:06;31.97;;;19.03;;
21837;SDS011;11081;45.946;6.140;2023-02-08T07:39:34;30.80;;;18.73;;
21837;SDS011;11081;45.946;6.140;2023-02-08T07:42:02;34.03;;;18.03;;
21837;SDS011;11081;45.946;6.140;2023-02-08T07:44:38;32.13;;;17.70;;
21837;SDS011;11081;45.946;6.140;2023-02-08T07:47:06;32.37;;;17.77;;
21837;SDS011;11081;45.946;6.140;2023-02-08T07:49:35;31.43;;;18.43;;
21837;SDS011;11081;45.946;6.140;2023-02-08T07:52:04;28.03;;;16.07;;
21837;SDS011;11081;45.946;6.140;2023-02-08T07:54:32;27.27;;;15.43;;
21837;SDS011;11081;45.946;6.140;2023-02-08T07:57:00;32.87;;;17.73;;
21837;SDS011;11081;45.946;6.140;2023-02-08T07:59:29;32.37;;;17.70;;
21837;SDS011;11081;45.946;6.140;2023-02-08T08:01:57;33.00;;;16.90;;
21837;SDS011;11081;45.946;6.140;2023-02-08T08:04:25;29.43;;;16.67;;
21837;SDS011;11081;45.946;6.140;2023-02-08T08:06:54;30.57;;;17.10;;
21837;SDS011;11081;45.946;6.140;2023-02-08T08:09:22;26.37;;;16.23;;
21837;SDS011;11081;45.946;6.140;2023-02-08T08:11:50;30.47;;;16.10;;
21837;SDS011;11081;45.946;6.140;2023-02-08T08:14:18;30.63;;;17.20;;
21837;SDS011;11081;45.946;6.140;2023-02-08T08:16:47;36.87;;;17.23;;
21837;SDS011;11081;45.946;6.140;2023-02-08T08:19:15;32.87;;;17.23;;
21837;SDS011;11081;45.946;6.140;2023-02-08T08:21:43;31.03;;;17.97;;
21837;SDS011;11081;45.946;6.140;2023-02-08T08:24:12;29.67;;;16.87;;
21837;SDS011;11081;45.946;6.140;2023-02-08T08:26:40;36.60;;;17.90;;
21837;SDS011;11081;45.946;6.140;2023-02-08T08:29:08;33.63;;;18.20;;
21837;SDS011;11081;45.946;6.140;2023-02-08T08:31:36;29.87;;;17.40;;
21837;SDS011;11081;45.946;6.140;2023-02-08T08:34:04;34.13;;;17.53;;
21837;SDS011;11081;45.946;6.140;2023-02-08T08:36:32;28.53;;;16.23;;
21837;SDS011;11081;45.946;6.140;2023-02-08T08:39:00;33.67;;;16.73;;
21837;SDS011;11081;45.946;6.140;2023-02-08T08:41:30;38.50;;;16.73;;
21837;SDS011;11081;45.946;6.140;2023-02-08T08:43:58;37.73;;;16.10;;
21837;SDS011;11081;45.946;6.140;2023-02-08T08:46:26;32.13;;;15.73;;
21837;SDS011;11081;45.946;6.140;2023-02-08T08:48:54;32.63;;;17.17;;
21837;SDS011;11081;45.946;6.140;2023-02-08T08:51:22;30.60;;;18.13;;
21837;SDS011;11081;45.946;6.140;2023-02-08T08:53:50;34.77;;;18.17;;
21837;SDS011;11081;45.946;6.140;2023-02-08T08:56:18;30.90;;;17.83;;
21837;SDS011;11081;45.946;6.140;2023-02-08T08:58:48;31.37;;;19.10;;
21837;SDS011;11081;45.946;6.140;2023-02-08T09:01:16;36.17;;;19.70;;
21837;SDS011;11081;45.946;6.140;2023-02-08T09:03:44;34.97;;;19.87;;
21837;SDS011;11081;45.946;6.140;2023-02-08T09:06:12;35.33;;;20.80;;
21837;SDS011;11081;45.946;6.140;2023-02-08T09:08:40;37.23;;;20.23;;
21837;SDS011;11081;45.946;6.140;2023-02-08T09:11:09;37.53;;;21.73;;
21837;SDS011;11081;45.946;6.140;2023-02-08T09:13:39;37.77;;;21.17;;
21837;SDS011;11081;45.946;6.140;2023-02-08T09:16:10;40.97;;;23.37;;
21837;SDS011;11081;45.946;6.140;2023-02-08T09:18:40;40.80;;;22.37;;
21837;SDS011;11081;45.946;6.140;2023-02-08T09:21:10;38.50;;;22.27;;
21837;SDS011;11081;45.946;6.140;2023-02-08T09:23:40;37.50;;;22.43;;
21837;SDS011;11081;45.946;6.140;2023-02-08T09:26:09;41.27;;;22.10;;
21837;SDS011;11081;45.946;6.140;2023-02-08T09:28:38;41.37;;;23.77;;
21837;SDS011;11081;45.946;6.140;2023-02-08T09:31:06;38.43;;;21.90;;
21837;SDS011;11081;45.946;6.140;2023-02-08T09:33:36;38.37;;;22.33;;
21837;SDS011;11081;45.946;6.140;2023-02-08T09:36:04;38.03;;;22.03;;
21837;SDS011;11081;45.946;6.140;2023-02-08T09:38:34;39.30;;;22.30;;
21837;SDS011;11081;45.946;6.140;2023-02-08T09:41:06;42.07;;;22.83;;
21837;SDS011;11081;45.946;6.140;2023-02-08T09:43:45;39.47;;;22.30;;
21837;SDS011;11081;45.946;6.140;2023-02-08T09:46:21;40.33;;;22.53;;
21837;SDS011;11081;45.946;6.140;2023-02-08T09:48:52;48.70;;;22.73;;
21837;SDS011;11081;45.946;6.140;2023-02-08T09:51:27;43.67;;;23.83;;
21837;SDS011;11081;45.946;6.140;2023-02-08T09:54:01;43.77;;;22.97;;
21837;SDS011;11081;45.946;6.140;2023-02-08T09:56:33;43.07;;;22.43;;
21837;SDS011;11081;45.946;6.140;2023-02-08T09:59:07;40.43;;;22.00;;
21837;SDS011;11081;45.946;6.140;2023-02-08T10:01:41;38.87;;;21.93;;
21837;SDS011;11081;45.946;6.140;2023-02-08T10:04:12;43.30;;;24.20;;
21837;SDS011;11081;45.946;6.140;2023-02-08T10:06:46;43.13;;;23.13;;
21837;SDS011;11081;45.946;6.140;2023-02-08T10:09:16;42.93;;;22.40;;
21837;SDS011;11081;45.946;6.140;2023-02-08T10:11:49;40.60;;;22.80;;
21837;SDS011;11081;45.946;6.140;2023-02-08T10:14:38;42.07;;;21.07;;
21837;SDS011;11081;45.946;6.140;2023-02-08T10:17:20;40.27;;;21.47;;
21837;SDS011;11081;45.946;6.140;2023-02-08T10:20:11;38.57;;;23.00;;
21837;SDS011;11081;45.946;6.140;2023-02-08T10:22:55;39.80;;;21.73;;
21837;SDS011;11081;45.946;6.140;2023-02-08T10:25:38;39.90;;;20.27;;
21837;SDS011;11081;45.946;6.140;2023-02-08T10:28:20;38.17;;;21.07;;
21837;SDS011;11081;45.946;6.140;2023-02-08T10:30:56;37.00;;;18.30;;
21837;SDS011;11081;45.946;6.140;2023-02-08T10:33:35;32.90;;;19.87;;
21837;SDS011;11081;45.946;6.140;2023-02-08T10:36:12;41.00;;;21.90;;
21837;SDS011;11081;45.946;6.140;2023-02-08T10:38:43;34.77;;;20.77;;
21837;SDS011;11081;45.946;6.140;2023-02-08T10:41:14;35.97;;;19.33;;
21837;SDS011;11081;45.946;6.140;2023-02-08T10:43:47;37.93;;;20.50;;
21837;SDS011;11081;45.946;6.140;2023-02-08T10:46:21;35.30;;;19.23;;
21837;SDS011;11081;45.946;6.140;2023-02-08T10:48:58;31.87;;;18.87;;
21837;SDS011;11081;45.946;6.140;2023-02-08T10:51:31;36.83;;;20.13;;
21837;SDS011;11081;45.946;6.140;2023-02-08T10:54:00;38.77;;;20.77;;
21837;SDS011;11081;45.946;6.140;2023-02-08T10:59:18;40.30;;;20.40;;
21837;SDS011;11081;45.946;6.140;2023-02-08T11:01:48;36.47;;;20.77;;
21837;SDS011;11081;45.946;6.140;2023-02-08T11:04:17;33.87;;;19.60;;
21837;SDS011;11081;45.946;6.140;2023-02-08T11:06:47;35.83;;;20.10;;
21837;SDS011;11081;45.946;6.140;2023-02-08T11:09:24;35.70;;;20.37;;
21837;SDS011;11081;45.946;6.140;2023-02-08T11:11:54;32.80;;;19.70;;
21837;SDS011;11081;45.946;6.140;2023-02-08T11:14:25;33.63;;;19.00;;
21837;SDS011;11081;45.946;6.140;2023-02-08T11:17:23;36.13;;;20.73;;
21837;SDS011;11081;45.946;6.140;2023-02-08T11:19:53;37.93;;;19.83;;
21837;SDS011;11081;45.946;6.140;2023-02-08T11:22:24;39.20;;;20.50;;
21837;SDS011;11081;45.946;6.140;2023-02-08T11:24:57;39.13;;;20.57;;
21837;SDS011;11081;45.946;6.140;2023-02-08T11:27:30;38.27;;;20.57;;
21837;SDS011;11081;45.946;6.140;2023-02-08T11:30:10;39.07;;;20.87;;
21837;SDS011;11081;45.946;6.140;2023-02-08T11:32:46;35.40;;;19.93;;
21837;SDS011;11081;45.946;6.140;2023-02-08T11:35:18;32.57;;;19.27;;
21837;SDS011;11081;45.946;6.140;2023-02-08T11:37:50;38.20;;;20.90;;
21837;SDS011;11081;45.946;6.140;2023-02-08T11:40:21;34.07;;;19.80;;
21837;SDS011;11081;45.946;6.140;2023-02-08T11:42:52;34.10;;;20.13;;
21837;SDS011;11081;45.946;6.140;2023-02-08T11:45:21;36.20;;;20.30;;
21837;SDS011;11081;45.946;6.140;2023-02-08T11:47:51;34.67;;;19.43;;
21837;SDS011;11081;45.946;6.140;2023-02-08T11:50:22;35.73;;;19.20;;
21837;SDS011;11081;45.946;6.140;2023-02-08T11:52:54;34.87;;;19.53;;
21837;SDS011;11081;45.946;6.140;2023-02-08T11:55:26;34.43;;;18.40;;
21837;SDS011;11081;45.946;6.140;2023-02-08T11:57:56;39.20;;;19.50;;
21837;SDS011;11081;45.946;6.140;2023-02-08T12:00:27;33.97;;;19.07;;
21837;SDS011;11081;45.946;6.140;2023-02-08T12:02:57;31.70;;;18.23;;
21837;SDS011;11081;45.946;6.140;2023-02-08T12:05:29;32.90;;;18.00;;
21837;SDS011;11081;45.946;6.140;2023-02-08T12:08:10;35.20;;;17.90;;
21837;SDS011;11081;45.946;6.140;2023-02-08T12:10:54;33.27;;;18.13;;
21837;SDS011;11081;45.946;6.140;2023-02-08T12:13:37;30.17;;;17.43;;
21837;SDS011;11081;45.946;6.140;2023-02-08T12:16:24;30.80;;;17.60;;
21837;SDS011;11081;45.946;6.140;2023-02-08T12:19:13;30.57;;;16.83;;
21837;SDS011;11081;45.946;6.140;2023-02-08T12:21:59;35.03;;;18.10;;
21837;SDS011;11081;45.946;6.140;2023-02-08T12:24:39;33.37;;;17.30;;
21837;SDS011;11081;45.946;6.140;2023-02-08T12:27:20;32.73;;;16.47;;
21837;SDS011;11081;45.946;6.140;2023-02-08T12:30:01;32.00;;;16.07;;
21837;SDS011;11081;45.946;6.140;2023-02-08T12:32:46;31.27;;;15.97;;
21837;SDS011;11081;45.946;6.140;2023-02-08T12:35:40;33.43;;;15.77;;
21837;SDS011;11081;45.946;6.140;2023-02-08T12:38:32;32.07;;;17.47;;
21837;SDS011;11081;45.946;6.140;2023-02-08T12:41:49;25.83;;;14.83;;
21837;SDS011;11081;45.946;6.140;2023-02-08T12:44:32;28.43;;;14.87;;
21837;SDS011;11081;45.946;6.140;2023-02-08T12:47:14;30.57;;;15.03;;
21837;SDS011;11081;45.946;6.140;2023-02-08T12:49:57;29.53;;;15.00;;
21837;SDS011;11081;45.946;6.140;2023-02-08T12:52:32;29.87;;;15.30;;
21837;SDS011;11081;45.946;6.140;2023-02-08T12:55:08;26.13;;;13.70;;
21837;SDS011;11081;45.946;6.140;2023-02-08T12:57:45;24.43;;;12.60;;
21837;SDS011;11081;45.946;6.140;2023-02-08T13:00:18;26.33;;;13.80;;
21837;SDS011;11081;45.946;6.140;2023-02-08T13:02:50;29.47;;;14.10;;
21837;SDS011;11081;45.946;6.140;2023-02-08T13:05:27;27.60;;;13.57;;
21837;SDS011;11081;45.946;6.140;2023-02-08T13:08:00;25.03;;;13.60;;
21837;SDS011;11081;45.946;6.140;2023-02-08T13:10:35;28.23;;;14.00;;
21837;SDS011;11081;45.946;6.140;2023-02-08T13:13:09;26.57;;;15.23;;
21837;SDS011;11081;45.946;6.140;2023-02-08T13:15:43;32.57;;;14.83;;
21837;SDS011;11081;45.946;6.140;2023-02-08T13:18:15;24.17;;;13.97;;
21837;SDS011;11081;45.946;6.140;2023-02-08T13:20:48;32.63;;;16.03;;
21837;SDS011;11081;45.946;6.140;2023-02-08T13:23:20;30.13;;;16.00;;
21837;SDS011;11081;45.946;6.140;2023-02-08T13:25:53;29.60;;;17.00;;
21837;SDS011;11081;45.946;6.140;2023-02-08T13:28:26;31.00;;;15.73;;
21837;SDS011;11081;45.946;6.140;2023-02-08T13:30:58;27.23;;;16.40;;
21837;SDS011;11081;45.946;6.140;2023-02-08T13:33:31;30.73;;;16.43;;
21837;SDS011;11081;45.946;6.140;2023-02-08T13:36:23;28.87;;;16.50;;
21837;SDS011;11081;45.946;6.140;2023-02-08T13:38:54;33.37;;;16.97;;
21837;SDS011;11081;45.946;6.140;2023-02-08T13:41:25;28.00;;;16.60;;
21837;SDS011;11081;45.946;6.140;2023-02-08T13:43:56;28.50;;;15.97;;
21837;SDS011;11081;45.946;6.140;2023-02-08T13:46:28;30.10;;;16.20;;
21837;SDS011;11081;45.946;6.140;2023-02-08T13:49:04;27.73;;;15.50;;
21837;SDS011;11081;45.946;6.140;2023-02-08T13:54:28;29.47;;;16.03;;
21837;SDS011;11081;45.946;6.140;2023-02-08T13:56:56;32.23;;;16.70;;
21837;SDS011;11081;45.946;6.140;2023-02-08T13:59:36;35.23;;;16.73;;
21837;SDS011;11081;45.946;6.140;2023-02-08T14:08:11;26.83;;;15.70;;
21837;SDS011;11081;45.946;6.140;2023-02-08T14:10:49;33.23;;;17.80;;
21837;SDS011;11081;45.946;6.140;2023-02-08T14:13:28;28.03;;;16.43;;
21837;SDS011;11081;45.946;6.140;2023-02-08T14:18:58;28.77;;;15.60;;
21837;SDS011;11081;45.946;6.140;2023-02-08T14:21:33;30.33;;;15.87;;
21837;SDS011;11081;45.946;6.140;2023-02-08T14:24:05;28.90;;;15.53;;
21837;SDS011;11081;45.946;6.140;2023-02-08T14:26:45;26.77;;;14.37;;
21837;SDS011;11081;45.946;6.140;2023-02-08T14:29:18;28.70;;;16.27;;
21837;SDS011;11081;45.946;6.140;2023-02-08T14:31:52;28.63;;;15.97;;
21837;SDS011;11081;45.946;6.140;2023-02-08T14:34:22;23.83;;;14.53;;
21837;SDS011;11081;45.946;6.140;2023-02-08T14:37:01;24.67;;;14.63;;
21837;SDS011;11081;45.946;6.140;2023-02-08T14:39:32;24.43;;;13.37;;
21837;SDS011;11081;45.946;6.140;2023-02-08T14:42:02;22.23;;;13.33;;
21837;SDS011;11081;45.946;6.140;2023-02-08T14:44:43;26.47;;;13.73;;
21837;SDS011;11081;45.946;6.140;2023-02-08T14:47:49;28.57;;;14.30;;
21837;SDS011;11081;45.946;6.140;2023-02-08T14:50:40;29.47;;;13.77;;
21837;SDS011;11081;45.946;6.140;2023-02-08T14:53:24;23.87;;;13.77;;
21837;SDS011;11081;45.946;6.140;2023-02-08T14:55:57;21.00;;;12.70;;
21837;SDS011;11081;45.946;6.140;2023-02-08T14:58:30;23.47;;;13.73;;
21837;SDS011;11081;45.946;6.140;2023-02-08T15:01:01;24.83;;;14.00;;
21837;SDS011;11081;45.946;6.140;2023-02-08T15:03:35;22.23;;;12.53;;
21837;SDS011;11081;45.946;6.140;2023-02-08T15:09:19;31.00;;;14.00;;
21837;SDS011;11081;45.946;6.140;2023-02-08T15:11:52;25.77;;;13.73;;